createdAt,value
2023-08-26T00:00:53.081Z,100984.81
2023-08-26T00:03:19.821Z,100985.84
2023-08-26T00:05:46.539Z,100969.75
2023-08-26T00:08:13.125Z,100976.00
2023-08-26T00:10:39.866Z,100981.44
2023-08-26T00:13:06.597Z,100979.75
2023-08-26T00:15:33.293Z,100986.03
2023-08-26T00:18:00.175Z,100975.56
2023-08-26T00:20:28.335Z,100972.84
2023-08-26T00:22:54.902Z,100973.88
2023-08-26T00:25:21.484Z,100982.25
2023-08-26T00:27:48.037Z,100977.66
2023-08-26T00:30:14.651Z,100983.22
2023-08-26T00:32:41.256Z,100985.09
2023-08-26T00:35:08.020Z,100983.22
2023-08-26T00:37:34.598Z,100976.97
2023-08-26T00:40:01.190Z,100972.56
2023-08-26T00:42:27.832Z,100968.19
2023-08-26T00:44:54.348Z,100970.91
2023-08-26T00:47:20.940Z,100973.78
2023-08-26T00:49:47.581Z,100974.66
2023-08-26T00:52:14.166Z,100966.72
2023-08-26T00:54:40.868Z,100969.41
2023-08-26T00:57:09.778Z,100968.59
2023-08-26T00:59:37.049Z,100966.09
2023-08-26T01:02:03.696Z,100965.25
2023-08-26T01:04:30.294Z,100964.38
2023-08-26T01:06:56.937Z,100968.13
2023-08-26T01:09:23.926Z,100972.94
2023-08-26T01:11:53.092Z,100971.22
2023-08-26T01:14:35.035Z,100974.16
2023-08-26T01:17:04.917Z,100969.56
2023-08-26T01:19:36.838Z,100973.53
2023-08-26T01:22:06.846Z,100971.81
2023-08-26T01:24:34.522Z,100966.63
2023-08-26T01:27:01.195Z,100969.53
2023-08-26T01:29:27.794Z,100968.66
2023-08-26T01:32:18.441Z,100958.03
2023-08-26T01:34:50.499Z,100955.53
2023-08-26T01:37:19.423Z,100961.97
2023-08-26T01:39:48.112Z,100962.16
2023-08-26T01:42:15.897Z,100961.50
2023-08-26T01:44:43.139Z,100959.00
2023-08-26T01:47:09.698Z,100960.88
2023-08-26T01:49:36.318Z,100969.22
2023-08-26T01:52:02.967Z,100960.22
2023-08-26T01:54:29.515Z,100960.22
2023-08-26T01:56:56.087Z,100962.31
2023-08-26T01:59:22.651Z,100960.63
2023-08-26T02:01:49.241Z,100971.66
2023-08-26T02:04:15.848Z,100967.28
2023-08-26T02:06:43.569Z,100971.03
2023-08-26T02:09:10.149Z,100969.16
2023-08-26T02:11:36.698Z,100965.78
2023-08-26T02:14:03.325Z,100971.19
2023-08-26T02:16:30.053Z,100974.13
2023-08-26T02:18:56.693Z,100973.28
2023-08-26T02:21:23.277Z,100971.41
2023-08-26T02:23:49.847Z,100978.03
2023-08-26T02:26:16.387Z,100977.22
2023-08-26T02:28:43.205Z,100979.28
2023-08-26T02:31:09.827Z,100972.19
2023-08-26T02:33:36.396Z,100966.97
2023-08-26T02:36:02.970Z,100968.84
2023-08-26T02:38:32.589Z,100965.50
2023-08-26T02:40:59.161Z,100977.16
2023-08-26T02:43:25.712Z,100970.25
2023-08-26T02:45:53.384Z,100965.88
2023-08-26T02:48:21.250Z,100963.34
2023-08-26T02:50:47.903Z,100965.41
2023-08-26T02:53:14.964Z,100964.75
2023-08-26T02:55:41.545Z,100965.78
2023-08-26T02:58:08.062Z,100967.88
2023-08-26T03:00:34.678Z,100961.59
2023-08-26T03:03:01.360Z,100963.69
2023-08-26T03:05:27.976Z,100960.13
2023-08-26T03:07:54.736Z,100953.88
2023-08-26T03:10:21.466Z,100957.59
2023-08-26T03:12:48.012Z,100956.75
2023-08-26T03:15:14.684Z,100963.22
2023-08-26T03:17:41.258Z,100965.94
2023-08-26T03:20:08.193Z,100978.63
2023-08-26T03:22:34.870Z,100974.22
2023-08-26T03:25:01.482Z,100974.22
2023-08-26T03:27:28.046Z,100974.41
2023-08-26T03:29:54.626Z,100968.97
2023-08-26T03:32:21.225Z,100965.44
2023-08-26T03:34:48.191Z,100961.06
2023-08-26T03:37:14.959Z,100961.88
2023-08-26T03:39:41.516Z,100963.97
2023-08-26T03:42:08.076Z,100957.06
2023-08-26T03:44:34.614Z,100959.75
2023-08-26T03:47:01.159Z,100956.41
2023-08-26T03:49:27.704Z,100963.69
2023-08-26T03:51:54.246Z,100958.69
2023-08-26T03:54:20.784Z,100960.50
2023-08-26T03:56:47.336Z,100966.81
2023-08-26T03:59:13.949Z,100966.13
2023-08-26T04:01:40.515Z,100971.75
2023-08-26T04:04:07.138Z,100961.94
2023-08-26T04:06:34.683Z,100964.63
2023-08-26T04:09:03.532Z,100967.34
2023-08-26T04:11:30.169Z,100967.56
2023-08-26T04:13:57.139Z,100978.38
2023-08-26T04:16:23.743Z,100979.44
2023-08-26T04:18:50.355Z,100974.19
2023-08-26T04:21:16.950Z,100973.53
2023-08-26T04:23:43.705Z,100981.69
2023-08-26T04:26:10.310Z,100983.72
2023-08-26T04:28:36.870Z,100983.91
2023-08-26T04:31:03.564Z,100985.78
2023-08-26T04:33:30.683Z,100980.53
2023-08-26T04:35:57.435Z,100977.00
2023-08-26T04:38:24.003Z,100985.13
2023-08-26T04:40:50.594Z,101000.75
2023-08-26T04:43:18.015Z,101004.28
2023-08-26T04:45:45.039Z,101002.63
2023-08-26T04:48:11.643Z,101007.19
2023-08-26T04:50:38.338Z,101002.78
2023-08-26T04:53:05.230Z,101021.75
2023-08-26T04:55:34.208Z,101022.78
2023-08-26T04:58:01.182Z,101030.91
2023-08-26T05:00:28.073Z,101032.78
2023-08-26T05:02:54.800Z,101031.94
2023-08-26T05:05:21.446Z,101034.66
2023-08-26T05:07:48.357Z,101037.34
2023-08-26T05:10:14.905Z,101034.66
2023-08-26T05:12:41.461Z,101035.47
2023-08-26T05:15:08.313Z,101034.66
2023-08-26T05:17:35.005Z,101035.47
2023-08-26T05:20:01.770Z,101031.72
2023-08-26T05:22:28.283Z,101030.06
2023-08-26T05:24:54.906Z,101033.59
2023-08-26T05:27:23.738Z,101037.16
2023-08-26T05:29:50.758Z,101032.41
2023-08-26T05:32:19.196Z,101036.56
2023-08-26T05:34:45.949Z,101034.53
2023-08-26T05:37:12.488Z,101033.28
2023-08-26T05:39:39.032Z,101038.53
2023-08-26T05:42:05.963Z,101041.88
2023-08-26T05:44:32.554Z,101041.53
2023-08-26T05:46:59.074Z,101040.47
2023-08-26T05:49:25.598Z,101042.19
2023-08-26T05:51:52.108Z,101028.44
2023-08-26T05:54:18.657Z,101034.69
2023-08-26T05:56:45.227Z,101041.97
2023-08-26T05:59:11.774Z,101037.59
2023-08-26T06:01:39.030Z,101039.28
2023-08-26T06:04:06.280Z,101042.19
2023-08-26T06:06:32.817Z,101039.66
2023-08-26T06:08:59.410Z,101038.81
2023-08-26T06:11:25.978Z,101027.13
2023-08-26T06:13:52.636Z,101037.13
2023-08-26T06:16:21.493Z,101030.88
2023-08-26T06:18:48.903Z,101023.59
2023-08-26T06:21:16.417Z,101032.75
2023-08-26T06:23:43.010Z,101038.19
2023-08-26T06:26:09.620Z,101030.06
2023-08-26T06:28:36.317Z,101032.56
2023-08-26T06:31:03.613Z,101027.97
2023-08-26T06:33:30.244Z,101028.81
2023-08-26T06:35:56.848Z,101037.78
2023-08-26T06:38:23.739Z,101035.94
2023-08-26T06:40:55.342Z,101036.75
2023-08-26T06:43:22.250Z,101030.50
2023-08-26T06:45:49.002Z,101028.63
2023-08-26T06:48:16.673Z,101013.22
2023-08-26T06:50:47.821Z,101012.19
2023-08-26T06:53:15.795Z,101011.34
2023-08-26T06:55:42.349Z,101022.19
2023-08-26T06:58:08.908Z,101026.75
2023-08-26T07:00:35.456Z,101024.91
2023-08-26T07:03:02.112Z,101020.31
2023-08-26T07:05:28.724Z,101020.97
2023-08-26T07:07:55.586Z,101029.28
2023-08-26T07:10:22.466Z,101028.44
2023-08-26T07:12:48.983Z,101035.53
2023-08-26T07:15:15.654Z,101039.28
2023-08-26T07:17:43.102Z,101056.34
2023-08-26T07:20:11.616Z,101056.34
2023-08-26T07:22:38.301Z,101056.34
2023-08-26T07:25:05.279Z,101051.78
2023-08-26T07:27:31.866Z,101057.41
2023-08-26T07:29:58.681Z,101057.41
2023-08-26T07:32:25.265Z,101077.41
2023-08-26T07:34:53.281Z,101079.06
2023-08-26T07:37:19.908Z,101078.41
2023-08-26T07:39:49.441Z,101068.44
2023-08-26T07:42:16.034Z,101074.69
2023-08-26T07:44:42.578Z,101070.28
2023-08-26T07:47:09.263Z,101080.28
2023-08-26T07:49:35.812Z,101071.31
2023-08-26T07:52:02.499Z,101079.63
2023-08-26T07:54:29.222Z,101070.00
2023-08-26T07:56:56.184Z,101070.22
2023-08-26T07:59:22.738Z,101073.91
2023-08-26T08:01:49.299Z,101064.13
2023-08-26T08:04:15.899Z,101067.03
2023-08-26T08:06:42.450Z,101073.50
2023-08-26T08:09:10.303Z,101071.63
2023-08-26T08:11:37.135Z,101068.06
2023-08-26T08:14:03.836Z,101075.16
2023-08-26T08:16:30.394Z,101067.03
2023-08-26T08:18:56.915Z,101064.13
2023-08-26T08:21:23.464Z,101069.53
2023-08-26T08:23:50.057Z,101082.03
2023-08-26T08:26:17.320Z,101076.63
2023-08-26T08:28:44.183Z,101078.34
2023-08-26T08:31:10.763Z,101076.47
2023-08-26T08:33:37.425Z,101071.69
2023-08-26T08:36:04.870Z,101078.13
2023-08-26T08:38:31.472Z,101077.94
2023-08-26T08:40:59.794Z,101075.06
2023-08-26T08:43:31.288Z,101070.47
2023-08-26T08:45:58.431Z,101081.97
2023-08-26T08:48:25.359Z,101072.16
2023-08-26T08:50:54.472Z,101077.56
2023-08-26T08:53:30.134Z,101091.94
2023-08-26T08:55:57.184Z,101087.19
2023-08-26T08:58:24.323Z,101079.91
2023-08-26T09:00:52.612Z,101092.25
2023-08-26T09:03:19.568Z,101094.94
2023-08-26T09:05:46.402Z,101088.50
2023-08-26T09:08:15.356Z,101093.91
2023-08-26T09:10:42.032Z,101081.88
2023-08-26T09:13:08.574Z,101088.13
2023-08-26T09:15:35.147Z,101083.53
2023-08-26T09:18:01.983Z,101077.91
2023-08-26T09:20:30.309Z,101077.75
2023-08-26T09:23:06.537Z,101082.97
2023-08-26T09:25:33.511Z,101073.63
2023-08-26T09:28:00.529Z,101088.69
2023-08-26T09:30:27.233Z,101086.63
2023-08-26T09:32:54.752Z,101096.91
2023-08-26T09:38:09.307Z,101109.22
2023-08-26T09:40:35.873Z,101101.75
2023-08-26T09:43:05.494Z,101103.25
2023-08-26T09:45:36.777Z,101111.19
2023-08-26T09:48:03.531Z,101105.38
2023-08-26T09:50:34.579Z,101108.09
2023-08-26T09:53:01.298Z,101100.59
2023-08-26T09:55:28.594Z,101101.06
2023-08-26T09:57:55.782Z,101113.41
2023-08-26T10:00:22.641Z,101107.78
2023-08-26T10:02:50.969Z,101116.75
2023-08-26T10:05:20.012Z,101115.53
2023-08-26T10:07:51.803Z,101103.66
2023-08-26T10:10:30.093Z,101094.47
2023-08-26T10:13:20.716Z,101095.97
2023-08-26T10:15:51.629Z,101107.47
2023-08-26T10:18:28.932Z,101102.06
2023-08-26T10:20:56.911Z,101105.41
2023-08-26T10:23:26.058Z,101110.00
2023-08-26T10:25:53.492Z,101100.81
2023-08-26T10:28:21.397Z,101099.16
2023-08-26T10:30:48.258Z,101099.97
2023-08-26T10:33:14.848Z,101099.97
2023-08-26T10:35:41.675Z,101097.94
2023-08-26T10:38:10.455Z,101101.28
2023-08-26T10:40:37.057Z,101092.97
2023-08-26T10:43:06.258Z,101096.31
2023-08-26T10:45:33.139Z,101095.72
2023-08-26T10:48:01.506Z,101087.22
2023-08-26T10:50:29.415Z,101080.75
2023-08-26T10:53:00.293Z,101083.28
2023-08-26T10:55:29.255Z,101084.75
2023-08-26T10:58:07.734Z,101082.69
2023-08-26T11:00:35.040Z,101080.44
2023-08-26T11:03:04.952Z,101075.84
2023-08-26T11:05:31.790Z,101073.75
2023-08-26T11:07:58.602Z,101076.47
2023-08-26T11:10:34.027Z,101080.03
2023-08-26T11:13:01.321Z,101079.03
2023-08-26T11:15:48.096Z,101077.72
2023-08-26T11:18:14.903Z,101074.81
2023-08-26T11:20:41.483Z,101073.13
2023-08-26T11:23:08.177Z,101068.72
2023-08-26T11:25:35.151Z,101075.19
2023-08-26T11:28:05.838Z,101068.09
2023-08-26T11:30:43.786Z,101071.00
2023-08-26T11:33:16.433Z,101078.94
2023-08-26T11:35:51.986Z,101064.34
2023-08-26T11:38:25.880Z,101070.44
2023-08-26T11:40:52.401Z,101072.09
2023-08-26T11:43:19.162Z,101063.75
2023-08-26T11:45:51.254Z,101075.44
2023-08-26T11:48:17.979Z,101079.88
2023-08-26T11:50:47.252Z,101070.91
2023-08-26T11:53:13.825Z,101079.88
2023-08-26T11:55:40.653Z,101071.75
2023-08-26T11:58:07.429Z,101078.16
2023-08-26T12:00:34.526Z,101077.31
2023-08-26T12:03:06.461Z,101089.00
2023-08-26T12:05:47.354Z,101089.00
2023-08-26T12:08:18.572Z,101096.16
2023-08-26T12:10:53.155Z,101087.81
2023-08-26T12:13:20.562Z,101083.22
2023-08-26T12:15:47.913Z,101095.38
2023-08-26T12:18:15.686Z,101078.72
2023-08-26T12:20:47.809Z,101080.81
2023-08-26T12:23:18.778Z,101078.13
2023-08-26T12:25:46.400Z,101087.91
2023-08-26T12:28:14.506Z,101080.00
2023-08-26T12:30:43.528Z,101085.41
2023-08-26T12:33:21.552Z,101095.44
2023-08-26T12:35:49.793Z,101112.75
2023-08-26T12:38:16.369Z,101097.69
2023-08-26T12:40:49.554Z,101105.00
2023-08-26T12:43:16.677Z,101108.75
2023-08-26T12:45:44.038Z,101102.50
2023-08-26T12:48:11.279Z,101093.47
2023-08-26T12:50:38.089Z,101095.19
2023-08-26T12:53:05.545Z,101100.41
2023-08-26T12:55:32.791Z,101092.06
2023-08-26T12:57:59.649Z,101093.94
2023-08-26T13:00:26.612Z,101093.56
2023-08-26T13:02:53.320Z,101088.78
2023-08-26T13:05:20.302Z,101092.97
2023-08-26T13:07:46.892Z,101095.50
2023-08-26T13:10:13.589Z,101088.00
2023-08-26T13:12:44.137Z,101088.66
2023-08-26T13:15:13.348Z,101082.19
2023-08-26T13:17:40.291Z,101087.41
2023-08-26T13:20:10.589Z,101081.78
2023-08-26T13:22:37.150Z,101080.53
2023-08-26T13:25:03.861Z,101079.31
2023-08-26T13:27:30.923Z,101080.59
2023-08-26T13:29:57.484Z,101074.34
2023-08-26T13:32:24.151Z,101078.94
2023-08-26T13:34:50.770Z,101072.63
2023-08-26T13:37:17.341Z,101072.84
2023-08-26T13:39:44.636Z,101087.47
2023-08-26T13:42:11.265Z,101079.31
2023-08-26T13:44:37.867Z,101091.22
2023-08-26T13:47:04.549Z,101104.78
2023-08-26T13:49:31.396Z,101099.34
2023-08-26T13:51:58.061Z,101099.34
2023-08-26T13:54:25.026Z,101102.06
2023-08-26T13:56:51.614Z,101104.78
2023-08-26T13:59:18.175Z,101115.63
2023-08-26T14:01:44.774Z,101119.38
2023-08-26T14:04:11.296Z,101124.78
2023-08-26T14:06:37.873Z,101124.16
2023-08-26T14:09:04.655Z,101124.34
2023-08-26T14:11:31.315Z,101118.50
2023-08-26T14:13:57.884Z,101126.19
2023-08-26T14:16:24.431Z,101123.00
2023-08-26T14:18:50.986Z,101125.91
2023-08-26T14:21:17.643Z,101126.31
2023-08-26T14:23:46.245Z,101132.97
2023-08-26T14:26:14.076Z,101133.16
2023-08-26T14:28:40.715Z,101129.16
2023-08-26T14:31:07.292Z,101129.53
2023-08-26T14:33:34.389Z,101128.00
2023-08-26T14:36:01.978Z,101132.81
2023-08-26T14:38:28.538Z,101126.94
2023-08-26T14:40:55.122Z,101117.28
2023-08-26T14:43:21.905Z,101124.78
2023-08-26T14:45:49.803Z,101113.13
2023-08-26T14:48:16.992Z,101117.66
2023-08-26T14:50:44.828Z,101114.78
2023-08-26T14:53:11.429Z,101114.59
2023-08-26T14:55:44.923Z,101120.00
2023-08-26T14:58:11.428Z,101106.44
2023-08-26T15:00:38.819Z,101116.72
2023-08-26T15:03:06.762Z,101111.09
2023-08-26T15:05:33.493Z,101120.91
2023-08-26T15:08:00.238Z,101125.31
2023-08-26T15:10:27.145Z,101126.00
2023-08-26T15:12:53.765Z,101120.38
2023-08-26T15:15:20.380Z,101118.31
2023-08-26T15:17:47.020Z,101116.22
2023-08-26T15:20:13.664Z,101112.47
2023-08-26T15:22:40.271Z,101113.97
2023-08-26T15:25:07.529Z,101120.06
2023-08-26T15:27:34.164Z,101114.63
2023-08-26T15:30:00.710Z,101121.72
2023-08-26T15:32:27.309Z,101118.19
2023-08-26T15:34:53.980Z,101118.19
2023-08-26T15:37:20.624Z,101121.06
2023-08-26T15:39:47.271Z,101122.09
2023-08-26T15:42:13.911Z,101116.06
2023-08-26T15:44:40.879Z,101115.38
2023-08-26T15:47:07.640Z,101113.06
2023-08-26T15:49:34.442Z,101113.28
2023-08-26T15:52:01.142Z,101116.13
2023-08-26T15:54:27.779Z,101112.78
2023-08-26T15:56:54.398Z,101115.50
2023-08-26T15:59:20.977Z,101110.91
2023-08-26T16:01:47.531Z,101096.50
2023-08-26T16:04:16.303Z,101095.66
2023-08-26T16:06:43.040Z,101091.09
2023-08-26T16:09:09.633Z,101092.31
2023-08-26T16:11:36.252Z,101096.88
2023-08-26T16:14:02.825Z,101096.88
2023-08-26T16:16:29.814Z,101094.19
2023-08-26T16:18:57.595Z,101089.59
2023-08-26T16:21:24.390Z,101092.13
2023-08-26T16:23:51.292Z,101099.44
2023-08-26T16:26:18.277Z,101107.34
2023-08-26T16:28:45.867Z,101114.44
2023-08-26T16:31:12.932Z,101113.41
2023-08-26T16:33:40.001Z,101117.03
2023-08-26T16:36:07.840Z,101110.56
2023-08-26T16:38:35.181Z,101110.56
2023-08-26T16:41:02.779Z,101109.72
2023-08-26T16:43:31.301Z,101114.31
2023-08-26T16:45:58.204Z,101117.84
2023-08-26T16:48:24.861Z,101121.97
2023-08-26T16:50:52.278Z,101122.78
2023-08-26T16:53:20.388Z,101113.81
2023-08-26T16:55:46.979Z,101108.56
2023-08-26T16:58:13.575Z,101107.34
2023-08-26T17:00:40.576Z,101110.91
2023-08-26T17:03:07.633Z,101101.72
2023-08-26T17:05:34.427Z,101099.84
2023-08-26T17:08:01.640Z,101093.59
2023-08-26T17:10:29.701Z,101096.88
2023-08-26T17:12:56.471Z,101105.81
2023-08-26T17:15:23.307Z,101104.31
2023-08-26T17:17:50.048Z,101100.56
2023-08-26T17:20:16.662Z,101106.00
2023-08-26T17:22:43.252Z,101106.81
2023-08-26T17:25:09.814Z,101101.59
2023-08-26T17:27:37.902Z,101103.47
2023-08-26T17:30:05.426Z,101098.44
2023-08-26T17:32:32.055Z,101092.19
2023-08-26T17:34:58.684Z,101096.97
2023-08-26T17:37:25.362Z,101098.38
2023-08-26T17:39:51.934Z,101092.97
2023-08-26T17:42:18.491Z,101099.22
2023-08-26T17:44:45.070Z,101097.53
2023-08-26T17:47:11.604Z,101097.06
2023-08-26T17:49:38.331Z,101097.72
2023-08-26T17:52:05.480Z,101097.34
2023-08-26T17:54:32.066Z,101102.41
2023-08-26T17:56:58.728Z,101097.59
2023-08-26T17:59:25.342Z,101099.09
2023-08-26T18:01:51.945Z,101094.31
2023-08-26T18:04:18.520Z,101094.13
2023-08-26T18:06:46.160Z,101097.69
2023-08-26T18:09:13.300Z,101103.09
2023-08-26T18:11:39.986Z,101094.97
2023-08-26T18:14:06.583Z,101094.75
2023-08-26T18:16:33.256Z,101091.00
2023-08-26T18:18:59.903Z,101092.50
2023-08-26T18:21:26.456Z,101100.44
2023-08-26T18:23:53.393Z,101101.28
2023-08-26T18:26:19.918Z,101111.28
2023-08-26T18:28:46.506Z,101108.97
2023-08-26T18:31:13.146Z,101115.81
2023-08-26T18:33:39.799Z,101120.59
2023-08-26T18:36:06.359Z,101108.91
2023-08-26T18:38:32.951Z,101113.28
2023-08-26T18:41:00.800Z,101103.09
2023-08-26T18:43:27.786Z,101103.72
2023-08-26T18:45:55.479Z,101112.69
2023-08-26T18:48:22.045Z,101109.16
2023-08-26T18:51:06.946Z,101113.13
2023-08-26T18:53:33.973Z,101118.34
2023-08-26T18:56:01.106Z,101111.03
2023-08-26T18:58:27.720Z,101112.69
2023-08-26T19:00:55.612Z,101121.69
2023-08-26T19:03:23.038Z,101126.09
2023-08-26T19:05:50.834Z,101125.25
2023-08-26T19:08:18.127Z,101128.13
2023-08-26T19:10:46.478Z,101131.69
2023-08-26T19:13:13.721Z,101140.03
2023-08-26T19:15:41.252Z,101136.47
2023-08-26T19:18:08.449Z,101130.41
2023-08-26T19:20:39.020Z,101141.44
2023-08-26T19:23:06.626Z,101138.94
2023-08-26T19:25:34.631Z,101135.34
2023-08-26T19:28:01.455Z,101148.91
2023-08-26T19:30:28.064Z,101150.63
2023-08-26T19:32:57.845Z,101155.22
2023-08-26T19:35:25.231Z,101149.78
2023-08-26T19:37:51.843Z,101137.91
2023-08-26T19:40:18.628Z,101126.22
2023-08-26T19:42:45.235Z,101126.22
2023-08-26T19:45:12.235Z,101130.81
2023-08-26T19:47:39.592Z,101131.81
2023-08-26T19:50:06.907Z,101134.53
2023-08-26T19:52:34.324Z,101128.94
2023-08-26T19:55:02.035Z,101124.72
2023-08-26T19:57:28.658Z,101133.69
2023-08-26T19:59:56.303Z,101141.19
2023-08-26T20:02:22.996Z,101140.16
2023-08-26T20:04:50.651Z,101133.91
2023-08-26T20:07:17.905Z,101134.06
2023-08-26T20:09:44.635Z,101135.94
2023-08-26T20:12:11.337Z,101134.28
2023-08-26T20:14:39.263Z,101130.72
2023-08-26T20:17:05.959Z,101133.22
2023-08-26T20:19:35.078Z,101125.94
2023-08-26T20:22:03.842Z,101129.50
2023-08-26T20:24:31.169Z,101124.09
2023-08-26T20:26:58.067Z,101127.63
2023-08-26T20:29:24.797Z,101119.50
2023-08-26T20:31:52.167Z,101115.94
2023-08-26T20:34:19.182Z,101119.50
2023-08-26T20:36:48.664Z,101128.47
2023-08-26T20:39:16.045Z,101123.88
2023-08-26T20:41:42.771Z,101115.75
2023-08-26T20:44:09.344Z,101116.59
2023-08-26T20:46:36.289Z,101113.88
2023-08-26T20:49:03.921Z,101114.72
2023-08-26T20:51:31.515Z,101112.84
2023-08-26T20:53:58.109Z,101111.81
2023-08-26T20:56:26.119Z,101110.94
2023-08-26T20:58:56.637Z,101109.09
2023-08-26T21:01:23.304Z,101108.25
2023-08-26T21:03:49.867Z,101102.81
2023-08-26T21:06:16.488Z,101103.84
2023-08-26T21:08:43.426Z,101100.31
2023-08-26T21:11:10.047Z,101109.50
2023-08-26T21:13:38.516Z,101103.41
2023-08-26T21:16:08.387Z,101109.03
2023-08-26T21:18:35.660Z,101100.91
2023-08-26T21:21:02.567Z,101114.25
2023-08-26T21:23:29.655Z,101105.09
2023-08-26T21:25:56.773Z,101101.53
2023-08-26T21:28:27.537Z,101102.56
2023-08-26T21:30:55.030Z,101098.19
2023-08-26T21:33:22.964Z,101109.88
2023-08-26T21:35:50.945Z,101106.31
2023-08-26T21:38:17.552Z,101105.28
2023-08-26T21:40:44.412Z,101102.56
2023-08-26T21:43:14.260Z,101096.50
2023-08-26T21:45:41.091Z,101089.38
2023-08-26T21:48:08.605Z,101096.69
2023-08-26T21:50:42.315Z,101097.72
2023-08-26T21:53:09.235Z,101095.22
2023-08-26T21:55:35.937Z,101092.31
2023-08-26T21:58:07.200Z,101091.00
2023-08-26T22:00:38.083Z,101080.38
2023-08-26T22:03:05.005Z,101084.09
2023-08-26T22:05:33.663Z,101079.06
2023-08-26T22:08:00.755Z,101081.97
2023-08-26T22:10:27.836Z,101082.34
2023-08-26T22:12:55.550Z,101082.53
2023-08-26T22:15:23.349Z,101090.66
2023-08-26T22:17:50.747Z,101093.38
2023-08-26T22:20:17.640Z,101097.75
2023-08-26T22:22:45.559Z,101103.19
2023-08-26T22:25:13.008Z,101086.91
2023-08-26T22:27:41.381Z,101093.19
2023-08-26T22:30:09.571Z,101080.50
2023-08-26T22:32:37.124Z,101091.34
2023-08-26T22:35:04.737Z,101083.19
2023-08-26T22:37:33.872Z,101092.34
2023-08-26T22:40:01.942Z,101095.88
2023-08-26T22:42:31.136Z,101086.09
2023-08-26T22:44:58.205Z,101079.00
2023-08-26T22:47:28.801Z,101077.31
2023-08-26T22:50:05.702Z,101072.06
2023-08-26T22:52:33.281Z,101067.69
2023-08-26T22:55:00.297Z,101064.97
2023-08-26T22:57:27.165Z,101068.91
2023-08-26T22:59:53.753Z,101071.63
2023-08-26T23:02:21.553Z,101060.16
2023-08-26T23:04:48.771Z,101060.34
2023-08-26T23:07:15.465Z,101055.94
2023-08-26T23:09:42.024Z,101061.56
2023-08-26T23:12:08.885Z,101070.72
2023-08-26T23:14:38.054Z,101065.47
2023-08-26T23:17:05.029Z,101059.44
2023-08-26T23:19:31.685Z,101058.75
2023-08-26T23:21:59.573Z,101051.66
2023-08-26T23:24:26.247Z,101058.31
2023-08-26T23:26:52.797Z,101052.25
2023-08-26T23:29:19.398Z,101046.00
2023-08-26T23:31:46.985Z,101052.41
2023-08-26T23:34:18.799Z,101047.38
2023-08-26T23:36:47.352Z,101040.47
2023-08-26T23:39:14.664Z,101051.50
2023-08-26T23:41:41.909Z,101046.44
2023-08-26T23:44:08.653Z,101044.78
2023-08-26T23:46:35.609Z,101043.28
2023-08-26T23:49:03.370Z,101040.78
2023-08-26T23:51:29.971Z,101044.69
2023-08-26T23:53:56.527Z,101044.91
2023-08-26T23:56:23.054Z,101044.22
2023-08-26T23:58:49.623Z,101038.81
